Airfield :
LOGIN :

Register | Disclaimer

   EN    FR    IT 

 










Legend :    VFR   Marginal VFR   IFR   Intensive IFR   Very Intensive IFR
Visi :
Ceiling :
>= 8 km
>= 3000ft
5 to 8 km
1000 to 3000 ft
1500m to 5 km
500 to 1000 ft
800 to 1500m
200 to 500 ft
< 800m
< 200 ft
Symbols :   Thunderstorms  Fog  Heavy snow  Heavy precipitations  Wind > 20 kt
SIGMETs :     Misc.  Thunderstorms  Icing  Turbulence  Mountain Waves  Volcanic Ashes






- Airport Elevation : 230 ft


ETHB - Buckeburg Army

CURRENT METAR :
  • 241520Z 25010KT 9999 FEW018 OVC050 18/14 Q1014 BLU

EXPIRED METARs :
  • 241510Z 25011KT 9999 SCT016 OVC050 18/14 Q1013 BLU
  • 241443Z 26013KT 9999 BKN015 OVC048 18/14 Q1013 WHT
  • 241420Z 24013KT 8000 FEW010 OVC048 17/14 Q1013 BLU
  • 241403Z 24013KT 8000 SCT010 BKN048 17/14 Q1014 BLU
  • 241350Z 25011KT 7000 BKN010 BKN048 17/14 Q1014 GRN
  • 241320Z 24011KT 7000 -DZ BKN009 17/15 Q1014 GRN

TAF TAF ETHB
Valid from the 24 at 08:00 until the 24 at 17:00 UTC


240721Z 2408/2417 26010KT 9999 NSW FEW010 BKN030



MET'MAP, your aeronautical weather chart ! - Copyright ORBIFLY December 2007 - Disclaimer

ORBIFLY MET'MAP TEAM :

Programming & Development : Alexandra Zaïnal
Concept & original design : Baudouin d'Aumeries
Assistance for programming : Marc-Olivier Méhu
Technical & hardware support : Manuel Goepfert

Contact : metmap@orbifly.com




SOURCES & CREDITS :

   NOAA